Sunflower IVory — JI3634 — position and weather

sailwx.info

Track history (hours):
 
Tides and Currents Weather Stations Pressure Air Temp Water Temp Dewpoint Dewpoint Depression Visibility Wind Speed Wind Dir Waves Ship Positions

Sunflower IVory

Last reported at 2018-Jun-17 13:17 UTC. Time now 2018-Jun-18 17:36 UTC.
Position N 34°24' E 134°13'.

Length 153 m; draft 5.7 m.

Type: Ship. MMSI: 431300686.

Date/timePositionNaut miles runAvg speedWind from/ knotsBaromVisibWave heightAir tempDewpointWater temp
2018-Jun-17 13:17N 34°24' E 134°13'620.4
2018-Jun-17 13:00N 34°25' E 134°20'919.1
2018-Jun-17 12:30N 34°28' E 134°31'1019.2
2018-Jun-17 12:00N 34°32' E 134°41'1121.0
2018-Jun-17 11:30N 34°36' E 134°53'918.6
2018-Jun-17 11:01N 34°36' E 135°05'1019.8
2018-Jun-17 10:31N 34°36' E 135°17'713.7
2018-Jun-17 10:00N 34°38' E 135°25'0 0.0
2018-Jun-17 09:29N 34°38' E 135°25'0 0.0
2018-Jun-17 08:59N 34°38' E 135°25'0 0.0
2018-Jun-17 08:29N 34°38' E 135°25'0 0.0
2018-Jun-17 07:59N 34°38' E 135°25'0 0.0
2018-Jun-17 07:26N 34°38' E 135°25'0 0.0
2018-Jun-17 06:59N 34°38' E 135°25'0 0.0
2018-Jun-17 06:29N 34°38' E 135°25'0 0.0
2018-Jun-17 05:59N 34°38' E 135°25'0 0.0
2018-Jun-17 05:29N 34°38' E 135°25'0 0.0
2018-Jun-17 04:59N 34°38' E 135°25'0 0.0
2018-Jun-17 04:29N 34°38' E 135°25'0 0.0
2018-Jun-17 03:59N 34°38' E 135°25'0 0.0
2018-Jun-17 03:29N 34°38' E 135°25'0 0.0
2018-Jun-17 02:59N 34°38' E 135°25'0 0.0
2018-Jun-17 02:29N 34°38' E 135°25'0 0.0
2018-Jun-17 01:56N 34°38' E 135°25'0 0.0
2018-Jun-17 01:29N 34°38' E 135°25'0 0.0
2018-Jun-17 00:59N 34°38' E 135°25'0 0.0
2018-Jun-17 00:29N 34°38' E 135°25'0 0.0
2018-Jun-16 23:59N 34°38' E 135°25'0 0.0
2018-Jun-16 23:29N 34°38' E 135°25'0 0.0
2018-Jun-16 22:59N 34°38' E 135°25'0 0.0
2018-Jun-16 22:29N 34°38' E 135°25'3 6.7
2018-Jun-16 22:00N 34°37' E 135°21'815.9
2018-Jun-16 21:30N 34°35' E 135°12'816.5
2018-Jun-16 21:00N 34°37' E 135°02'918.8
2018-Jun-16 20:30N 34°34' E 134°51'1019.3
2018-Jun-16 20:00N 34°29' E 134°41'1019.4
2018-Jun-16 19:30N 34°26' E 134°30'1019.2
2018-Jun-16 19:00N 34°23' E 134°18'5 0.2
2018-Jun-15 14:08N 34°24' E 134°13'215.9
2018-Jun-15 14:00N 34°24' E 134°16'917.7
2018-Jun-15 13:30N 34°27' E 134°26'1019.3
2018-Jun-15 13:00N 34°31' E 134°36'1020.7
2018-Jun-15 12:30N 34°34' E 134°48'1122.1
2018-Jun-15 12:00N 34°37' E 135°01'1019.0
2018-Jun-15 11:30N 34°36' E 135°13'918.5
2018-Jun-15 11:00N 34°38' E 135°24'1 1.6
2018-Jun-15 10:29N 34°38' E 135°25'0 0.0
2018-Jun-15 09:59N 34°38' E 135°25'0 0.0
2018-Jun-15 09:29N 34°38' E 135°25'0 0.0
2018-Jun-15 08:59N 34°38' E 135°25'0 0.0
2018-Jun-15 08:29N 34°38' E 135°25'0 0.0
2018-Jun-15 07:59N 34°38' E 135°25'0 0.0
2018-Jun-15 07:29N 34°38' E 135°25'0 0.0
2018-Jun-15 06:59N 34°38' E 135°25'0 0.0
2018-Jun-15 06:23N 34°38' E 135°25'0 0.0
2018-Jun-15 05:59N 34°38' E 135°25'0 0.0
2018-Jun-15 05:29N 34°38' E 135°25'0 0.0
2018-Jun-15 04:59N 34°38' E 135°25'0 0.0
2018-Jun-15 04:29N 34°38' E 135°25'0 0.0
2018-Jun-15 03:47N 34°38' E 135°25'0 0.0
2018-Jun-15 03:29N 34°38' E 135°25'0 0.0
2018-Jun-15 02:59N 34°38' E 135°25'0 0.0
2018-Jun-15 02:29N 34°38' E 135°25'0 0.0
2018-Jun-15 01:59N 34°38' E 135°25'0 0.0
2018-Jun-15 01:29N 34°38' E 135°25'0 0.0
2018-Jun-15 00:59N 34°38' E 135°25'0 0.0
2018-Jun-15 00:29N 34°38' E 135°25'0 0.0
2018-Jun-14 23:59N 34°38' E 135°25'0 0.0
2018-Jun-14 23:29N 34°38' E 135°25'0 0.0
2018-Jun-14 22:59N 34°38' E 135°25'0 0.0
2018-Jun-14 22:29N 34°38' E 135°25'0 0.0
2018-Jun-14 21:53N 34°38' E 135°25'0 0.0
2018-Jun-14 21:30N 34°38' E 135°25'4 7.9
2018-Jun-14 21:00N 34°36' E 135°20'918.6
2018-Jun-14 20:30N 34°35' E 135°09'1018.9
2018-Jun-14 20:00N 34°37' E 134°58'1020.2
2018-Jun-14 19:30N 34°32' E 134°47'919.0
2018-Jun-14 19:00N 34°28' E 134°36'1018.9
2018-Jun-14 18:29N 34°25' E 134°25'918.9
2018-Jun-14 18:00N 34°23' E 134°15'1 0.0
2018-Jun-13 13:10N 34°25' E 134°14'318.7
2018-Jun-13 12:59N 34°24' E 134°18'919.1
2018-Jun-13 12:30N 34°28' E 134°28'1019.7
2018-Jun-13 12:01N 34°32' E 134°39'1122.6
2018-Jun-13 11:30N 34°35' E 134°52'1121.6
2018-Jun-13 11:00N 34°36' E 135°05'1020.1
2018-Jun-13 10:30N 34°36' E 135°17'612.5
2018-Jun-13 10:01N 34°38' E 135°25'0 0.0
2018-Jun-13 09:26N 34°38' E 135°25'0 0.0
2018-Jun-13 08:56N 34°38' E 135°25'0 0.0
2018-Jun-13 08:26N 34°38' E 135°25'0 0.0
2018-Jun-13 07:50N 34°38' E 135°25'0 0.0
2018-Jun-13 07:29N 34°38' E 135°25'0 0.0
2018-Jun-13 06:59N 34°38' E 135°25'0 0.0
2018-Jun-13 06:29N 34°38' E 135°25'0 0.0
2018-Jun-13 05:56N 34°38' E 135°25'0 0.0
2018-Jun-13 05:29N 34°38' E 135°25'0 0.0
2018-Jun-13 04:56N 34°38' E 135°25'0 0.0
2018-Jun-13 04:26N 34°38' E 135°25'0 0.0
2018-Jun-13 03:59N 34°38' E 135°25'0 0.0
2018-Jun-13 03:29N 34°38' E 135°25'0 0.0
2018-Jun-13 02:59N 34°38' E 135°25'0 0.0
2018-Jun-13 02:29N 34°38' E 135°25'0 0.0
2018-Jun-13 01:53N 34°38' E 135°25'0 0.0
2018-Jun-13 01:26N 34°38' E 135°25'0 0.0
2018-Jun-13 00:56N 34°38' E 135°25'0 0.0
2018-Jun-13 00:29N 34°38' E 135°25'0 0.0
2018-Jun-12 23:56N 34°38' E 135°25'0 0.0
2018-Jun-12 23:29N 34°38' E 135°25'0 0.0
2018-Jun-12 22:59N 34°38' E 135°25'0 0.0
2018-Jun-12 22:29N 34°38' E 135°25'0 0.0
2018-Jun-12 21:56N 34°38' E 135°25'0 0.0
2018-Jun-12 21:31N 34°38' E 135°25'3 6.7
2018-Jun-12 21:00N 34°37' E 135°21'1019.8
2018-Jun-12 20:30N 34°34' E 135°09'918.6
2018-Jun-12 20:00N 34°37' E 134°58'918.4
2018-Jun-12 19:30N 34°33' E 134°48'918.5
2018-Jun-12 19:00N 34°29' E 134°38'1019.1
2018-Jun-12 18:30N 34°25' E 134°27'919.0
2018-Jun-12 18:00N 34°24' E 134°16'3 0.1
2018-Jun-11 13:11N 34°24' E 134°13'419.6
2018-Jun-11 12:58N 34°25' E 134°18'1020.7
2018-Jun-11 12:30N 34°27' E 134°29'1121.1
2018-Jun-11 12:00N 34°31' E 134°41'1121.7
2018-Jun-11 11:30N 34°36' E 134°54'1019.5
2018-Jun-11 11:00N 34°36' E 135°05'1019.9
2018-Jun-11 10:30N 34°36' E 135°17'612.3
2018-Jun-11 10:00N 34°38' E 135°25'0 0.0
2018-Jun-11 09:20N 34°38' E 135°25'0 0.0
2018-Jun-11 08:59N 34°38' E 135°25'0 0.0
2018-Jun-11 08:29N 34°38' E 135°25'0 0.0
2018-Jun-11 07:59N 34°38' E 135°25'0 0.0
2018-Jun-11 07:29N 34°38' E 135°25'0 0.0
2018-Jun-11 06:59N 34°38' E 135°25'0 0.0
2018-Jun-11 06:29N 34°38' E 135°25'0 0.0
2018-Jun-11 05:59N 34°38' E 135°25'0 0.0
2018-Jun-11 05:29N 34°38' E 135°25'0 0.0
2018-Jun-11 04:59N 34°38' E 135°25'0 0.0
2018-Jun-11 04:29N 34°38' E 135°25'0 0.0
2018-Jun-11 03:59N 34°38' E 135°25'0 0.0
2018-Jun-11 03:29N 34°38' E 135°25'0 0.0
2018-Jun-11 02:59N 34°38' E 135°25'0 0.0
2018-Jun-11 02:29N 34°38' E 135°25'0 0.0
2018-Jun-11 01:59N 34°38' E 135°25'0 0.0
2018-Jun-11 01:29N 34°38' E 135°25'0 0.0
2018-Jun-11 00:59N 34°38' E 135°25'0 0.0
2018-Jun-11 00:29N 34°38' E 135°25'0 0.0
2018-Jun-10 23:59N 34°38' E 135°25'0 0.0
2018-Jun-10 23:23N 34°38' E 135°25'0 0.0
2018-Jun-10 22:59N 34°38' E 135°25'0 0.0
2018-Jun-10 22:29N 34°38' E 135°25'0 0.0
2018-Jun-10 21:59N 34°38' E 135°25'0 0.1
2018-Jun-10 21:30N 34°38' E 135°25'611.8
2018-Jun-10 21:00N 34°36' E 135°18'1020.2
2018-Jun-10 20:30N 34°34' E 135°06'814.9
2018-Jun-10 20:00N 34°37' E 134°57'1019.9
2018-Jun-10 19:30N 34°32' E 134°47'1020.8
2018-Jun-10 19:00N 34°28' E 134°36'1120.9
2018-Jun-10 18:30N 34°24' E 134°23'24 0.9
2018-Jun-09 15:07N 34°24' E 133°54'812.2
2018-Jun-09 14:28N 34°27' E 134°03'918.3
2018-Jun-09 14:00N 34°24' E 134°13'1020.2
2018-Jun-09 13:30N 34°26' E 134°25'1121.3
2018-Jun-09 13:00N 34°30' E 134°37'1121.3
2018-Jun-09 12:30N 34°34' E 134°49'1020.5
2018-Jun-09 12:00N 34°38' E 135°01'1019.9
2018-Jun-09 11:30N 34°36' E 135°13'918.8
2018-Jun-09 11:00N 34°38' E 135°24'1 1.2
2018-Jun-09 10:30N 34°38' E 135°25'0 0.0
2018-Jun-09 09:58N 34°38' E 135°25'0 0.0
2018-Jun-09 09:28N 34°38' E 135°25'0 0.0
2018-Jun-09 08:58N 34°38' E 135°25'0 0.0
2018-Jun-09 08:28N 34°38' E 135°25'0 0.0
2018-Jun-09 07:58N 34°38' E 135°25'0 0.0
2018-Jun-09 07:22N 34°38' E 135°25'0 0.0
2018-Jun-09 06:58N 34°38' E 135°25'0 0.0
2018-Jun-09 06:22N 34°38' E 135°25'0 0.0
2018-Jun-09 05:58N 34°38' E 135°25'0 0.0
2018-Jun-09 05:22N 34°38' E 135°25'0 0.0
2018-Jun-09 04:58N 34°38' E 135°25'0 0.0
2018-Jun-09 04:28N 34°38' E 135°25'0 0.0
2018-Jun-09 03:58N 34°38' E 135°25'0 0.0
2018-Jun-09 03:28N 34°38' E 135°25'0 0.0
2018-Jun-09 02:55N 34°38' E 135°25'0 0.0
2018-Jun-09 02:28N 34°38' E 135°25'0 0.0
2018-Jun-09 01:58N 34°38' E 135°25'0 0.0
2018-Jun-09 01:28N 34°38' E 135°25'0 0.0
2018-Jun-09 00:58N 34°38' E 135°25'0 0.0
2018-Jun-09 00:25N 34°38' E 135°25'0 0.0
2018-Jun-08 23:58N 34°38' E 135°25'0 0.0
2018-Jun-08 23:28N 34°38' E 135°25'0 0.0
2018-Jun-08 22:58N 34°38' E 135°25'0 0.0
2018-Jun-08 22:31N 34°38' E 135°25'4 8.1
2018-Jun-08 22:01N 34°36' E 135°20'815.8
2018-Jun-08 21:31N 34°35' E 135°11'917.3
2018-Jun-08 21:00N 34°37' E 135°00'1019.7
2018-Jun-08 20:31N 34°34' E 134°49'1019.0
2018-Jun-08 20:00N 34°29' E 134°39'1119.8
2018-Jun-08 19:28N 34°26' E 134°27'920.3
2018-Jun-08 19:00N 34°24' E 134°16'  
Track history (hours):
 
Tides and Currents Weather Stations Pressure Air Temp Water Temp Dewpoint Dewpoint Depression Visibility Wind Speed Wind Dir Waves Ship Positions

Sunflower IVory

Last reported at 2018-Jun-17 13:17 UTC. Time now 2018-Jun-18 17:36 UTC.
Position N 34°24' E 134°13'.

Length 153 m; draft 5.7 m.

Type: Ship. MMSI: 431300686.

Date/timePositionNaut miles runAvg speedWind from/ knotsBaromVisibWave heightAir tempDewpointWater temp
2018-Jun-17 13:17N 34°24' E 134°13'620.4
2018-Jun-17 13:00N 34°25' E 134°20'919.1
2018-Jun-17 12:30N 34°28' E 134°31'1019.2
2018-Jun-17 12:00N 34°32' E 134°41'1121.0
2018-Jun-17 11:30N 34°36' E 134°53'918.6
2018-Jun-17 11:01N 34°36' E 135°05'1019.8
2018-Jun-17 10:31N 34°36' E 135°17'713.7
2018-Jun-17 10:00N 34°38' E 135°25'0 0.0
2018-Jun-17 09:29N 34°38' E 135°25'0 0.0
2018-Jun-17 08:59N 34°38' E 135°25'0 0.0
2018-Jun-17 08:29N 34°38' E 135°25'0 0.0
2018-Jun-17 07:59N 34°38' E 135°25'0 0.0
2018-Jun-17 07:26N 34°38' E 135°25'0 0.0
2018-Jun-17 06:59N 34°38' E 135°25'0 0.0
2018-Jun-17 06:29N 34°38' E 135°25'0 0.0
2018-Jun-17 05:59N 34°38' E 135°25'0 0.0
2018-Jun-17 05:29N 34°38' E 135°25'0 0.0
2018-Jun-17 04:59N 34°38' E 135°25'0 0.0
2018-Jun-17 04:29N 34°38' E 135°25'0 0.0
2018-Jun-17 03:59N 34°38' E 135°25'0 0.0
2018-Jun-17 03:29N 34°38' E 135°25'0 0.0
2018-Jun-17 02:59N 34°38' E 135°25'0 0.0
2018-Jun-17 02:29N 34°38' E 135°25'0 0.0
2018-Jun-17 01:56N 34°38' E 135°25'0 0.0
2018-Jun-17 01:29N 34°38' E 135°25'0 0.0
2018-Jun-17 00:59N 34°38' E 135°25'0 0.0
2018-Jun-17 00:29N 34°38' E 135°25'0 0.0
2018-Jun-16 23:59N 34°38' E 135°25'0 0.0
2018-Jun-16 23:29N 34°38' E 135°25'0 0.0
2018-Jun-16 22:59N 34°38' E 135°25'0 0.0
2018-Jun-16 22:29N 34°38' E 135°25'3 6.7
2018-Jun-16 22:00N 34°37' E 135°21'815.9
2018-Jun-16 21:30N 34°35' E 135°12'816.5
2018-Jun-16 21:00N 34°37' E 135°02'918.8
2018-Jun-16 20:30N 34°34' E 134°51'1019.3
2018-Jun-16 20:00N 34°29' E 134°41'1019.4
2018-Jun-16 19:30N 34°26' E 134°30'1019.2
2018-Jun-16 19:00N 34°23' E 134°18'5 0.2
2018-Jun-15 14:08N 34°24' E 134°13'215.9
2018-Jun-15 14:00N 34°24' E 134°16'917.7
2018-Jun-15 13:30N 34°27' E 134°26'1019.3
2018-Jun-15 13:00N 34°31' E 134°36'1020.7
2018-Jun-15 12:30N 34°34' E 134°48'1122.1
2018-Jun-15 12:00N 34°37' E 135°01'1019.0
2018-Jun-15 11:30N 34°36' E 135°13'918.5
2018-Jun-15 11:00N 34°38' E 135°24'1 1.6
2018-Jun-15 10:29N 34°38' E 135°25'0 0.0
2018-Jun-15 09:59N 34°38' E 135°25'0 0.0
2018-Jun-15 09:29N 34°38' E 135°25'0 0.0
2018-Jun-15 08:59N 34°38' E 135°25'0 0.0
2018-Jun-15 08:29N 34°38' E 135°25'0 0.0
2018-Jun-15 07:59N 34°38' E 135°25'0 0.0
2018-Jun-15 07:29N 34°38' E 135°25'0 0.0
2018-Jun-15 06:59N 34°38' E 135°25'0 0.0
2018-Jun-15 06:23N 34°38' E 135°25'0 0.0
2018-Jun-15 05:59N 34°38' E 135°25'0 0.0
2018-Jun-15 05:29N 34°38' E 135°25'0 0.0
2018-Jun-15 04:59N 34°38' E 135°25'0 0.0
2018-Jun-15 04:29N 34°38' E 135°25'0 0.0
2018-Jun-15 03:47N 34°38' E 135°25'0 0.0
2018-Jun-15 03:29N 34°38' E 135°25'0 0.0
2018-Jun-15 02:59N 34°38' E 135°25'0 0.0
2018-Jun-15 02:29N 34°38' E 135°25'0 0.0
2018-Jun-15 01:59N 34°38' E 135°25'0 0.0
2018-Jun-15 01:29N 34°38' E 135°25'0 0.0
2018-Jun-15 00:59N 34°38' E 135°25'0 0.0
2018-Jun-15 00:29N 34°38' E 135°25'0 0.0
2018-Jun-14 23:59N 34°38' E 135°25'0 0.0
2018-Jun-14 23:29N 34°38' E 135°25'0 0.0
2018-Jun-14 22:59N 34°38' E 135°25'0 0.0
2018-Jun-14 22:29N 34°38' E 135°25'0 0.0
2018-Jun-14 21:53N 34°38' E 135°25'0 0.0
2018-Jun-14 21:30N 34°38' E 135°25'4 7.9
2018-Jun-14 21:00N 34°36' E 135°20'918.6
2018-Jun-14 20:30N 34°35' E 135°09'1018.9
2018-Jun-14 20:00N 34°37' E 134°58'1020.2
2018-Jun-14 19:30N 34°32' E 134°47'919.0
2018-Jun-14 19:00N 34°28' E 134°36'1018.9
2018-Jun-14 18:29N 34°25' E 134°25'918.9
2018-Jun-14 18:00N 34°23' E 134°15'1 0.0
2018-Jun-13 13:10N 34°25' E 134°14'318.7
2018-Jun-13 12:59N 34°24' E 134°18'919.1
2018-Jun-13 12:30N 34°28' E 134°28'1019.7
2018-Jun-13 12:01N 34°32' E 134°39'1122.6
2018-Jun-13 11:30N 34°35' E 134°52'1121.6
2018-Jun-13 11:00N 34°36' E 135°05'1020.1
2018-Jun-13 10:30N 34°36' E 135°17'612.5
2018-Jun-13 10:01N 34°38' E 135°25'0 0.0
2018-Jun-13 09:26N 34°38' E 135°25'0 0.0
2018-Jun-13 08:56N 34°38' E 135°25'0 0.0
2018-Jun-13 08:26N 34°38' E 135°25'0 0.0
2018-Jun-13 07:50N 34°38' E 135°25'0 0.0
2018-Jun-13 07:29N 34°38' E 135°25'0 0.0
2018-Jun-13 06:59N 34°38' E 135°25'0 0.0
2018-Jun-13 06:29N 34°38' E 135°25'0 0.0
2018-Jun-13 05:56N 34°38' E 135°25'0 0.0
2018-Jun-13 05:29N 34°38' E 135°25'0 0.0
2018-Jun-13 04:56N 34°38' E 135°25'0 0.0
2018-Jun-13 04:26N 34°38' E 135°25'0 0.0
2018-Jun-13 03:59N 34°38' E 135°25'0 0.0
2018-Jun-13 03:29N 34°38' E 135°25'0 0.0
2018-Jun-13 02:59N 34°38' E 135°25'0 0.0
2018-Jun-13 02:29N 34°38' E 135°25'0 0.0
2018-Jun-13 01:53N 34°38' E 135°25'0 0.0
2018-Jun-13 01:26N 34°38' E 135°25'0 0.0
2018-Jun-13 00:56N 34°38' E 135°25'0 0.0
2018-Jun-13 00:29N 34°38' E 135°25'0 0.0
2018-Jun-12 23:56N 34°38' E 135°25'0 0.0
2018-Jun-12 23:29N 34°38' E 135°25'0 0.0
2018-Jun-12 22:59N 34°38' E 135°25'0 0.0
2018-Jun-12 22:29N 34°38' E 135°25'0 0.0
2018-Jun-12 21:56N 34°38' E 135°25'0 0.0
2018-Jun-12 21:31N 34°38' E 135°25'3 6.7
2018-Jun-12 21:00N 34°37' E 135°21'1019.8
2018-Jun-12 20:30N 34°34' E 135°09'918.6
2018-Jun-12 20:00N 34°37' E 134°58'918.4
2018-Jun-12 19:30N 34°33' E 134°48'918.5
2018-Jun-12 19:00N 34°29' E 134°38'1019.1
2018-Jun-12 18:30N 34°25' E 134°27'919.0
2018-Jun-12 18:00N 34°24' E 134°16'3 0.1
2018-Jun-11 13:11N 34°24' E 134°13'419.6
2018-Jun-11 12:58N 34°25' E 134°18'1020.7
2018-Jun-11 12:30N 34°27' E 134°29'1121.1
2018-Jun-11 12:00N 34°31' E 134°41'1121.7
2018-Jun-11 11:30N 34°36' E 134°54'1019.5
2018-Jun-11 11:00N 34°36' E 135°05'1019.9
2018-Jun-11 10:30N 34°36' E 135°17'612.3
2018-Jun-11 10:00N 34°38' E 135°25'0 0.0
2018-Jun-11 09:20N 34°38' E 135°25'0 0.0
2018-Jun-11 08:59N 34°38' E 135°25'0 0.0
2018-Jun-11 08:29N 34°38' E 135°25'0 0.0
2018-Jun-11 07:59N 34°38' E 135°25'0 0.0
2018-Jun-11 07:29N 34°38' E 135°25'0 0.0
2018-Jun-11 06:59N 34°38' E 135°25'0 0.0
2018-Jun-11 06:29N 34°38' E 135°25'0 0.0
2018-Jun-11 05:59N 34°38' E 135°25'0 0.0
2018-Jun-11 05:29N 34°38' E 135°25'0 0.0
2018-Jun-11 04:59N 34°38' E 135°25'0 0.0
2018-Jun-11 04:29N 34°38' E 135°25'0 0.0
2018-Jun-11 03:59N 34°38' E 135°25'0 0.0
2018-Jun-11 03:29N 34°38' E 135°25'0 0.0
2018-Jun-11 02:59N 34°38' E 135°25'0 0.0
2018-Jun-11 02:29N 34°38' E 135°25'0 0.0
2018-Jun-11 01:59N 34°38' E 135°25'0 0.0
2018-Jun-11 01:29N 34°38' E 135°25'0 0.0
2018-Jun-11 00:59N 34°38' E 135°25'0 0.0
2018-Jun-11 00:29N 34°38' E 135°25'0 0.0
2018-Jun-10 23:59N 34°38' E 135°25'0 0.0
2018-Jun-10 23:23N 34°38' E 135°25'0 0.0
2018-Jun-10 22:59N 34°38' E 135°25'0 0.0
2018-Jun-10 22:29N 34°38' E 135°25'0 0.0
2018-Jun-10 21:59N 34°38' E 135°25'0 0.1
2018-Jun-10 21:30N 34°38' E 135°25'611.8
2018-Jun-10 21:00N 34°36' E 135°18'1020.2
2018-Jun-10 20:30N 34°34' E 135°06'814.9
2018-Jun-10 20:00N 34°37' E 134°57'1019.9
2018-Jun-10 19:30N 34°32' E 134°47'1020.8
2018-Jun-10 19:00N 34°28' E 134°36'1120.9
2018-Jun-10 18:30N 34°24' E 134°23'24 0.9
2018-Jun-09 15:07N 34°24' E 133°54'812.2
2018-Jun-09 14:28N 34°27' E 134°03'918.3
2018-Jun-09 14:00N 34°24' E 134°13'1020.2
2018-Jun-09 13:30N 34°26' E 134°25'1121.3
2018-Jun-09 13:00N 34°30' E 134°37'1121.3
2018-Jun-09 12:30N 34°34' E 134°49'1020.5
2018-Jun-09 12:00N 34°38' E 135°01'1019.9
2018-Jun-09 11:30N 34°36' E 135°13'918.8
2018-Jun-09 11:00N 34°38' E 135°24'1 1.2
2018-Jun-09 10:30N 34°38' E 135°25'0 0.0
2018-Jun-09 09:58N 34°38' E 135°25'0 0.0
2018-Jun-09 09:28N 34°38' E 135°25'0 0.0
2018-Jun-09 08:58N 34°38' E 135°25'0 0.0
2018-Jun-09 08:28N 34°38' E 135°25'0 0.0
2018-Jun-09 07:58N 34°38' E 135°25'0 0.0
2018-Jun-09 07:22N 34°38' E 135°25'0 0.0
2018-Jun-09 06:58N 34°38' E 135°25'0 0.0
2018-Jun-09 06:22N 34°38' E 135°25'0 0.0
2018-Jun-09 05:58N 34°38' E 135°25'0 0.0
2018-Jun-09 05:22N 34°38' E 135°25'0 0.0
2018-Jun-09 04:58N 34°38' E 135°25'0 0.0
2018-Jun-09 04:28N 34°38' E 135°25'0 0.0
2018-Jun-09 03:58N 34°38' E 135°25'0 0.0
2018-Jun-09 03:28N 34°38' E 135°25'0 0.0
2018-Jun-09 02:55N 34°38' E 135°25'0 0.0
2018-Jun-09 02:28N 34°38' E 135°25'0 0.0
2018-Jun-09 01:58N 34°38' E 135°25'0 0.0
2018-Jun-09 01:28N 34°38' E 135°25'0 0.0
2018-Jun-09 00:58N 34°38' E 135°25'0 0.0
2018-Jun-09 00:25N 34°38' E 135°25'0 0.0
2018-Jun-08 23:58N 34°38' E 135°25'0 0.0
2018-Jun-08 23:28N 34°38' E 135°25'0 0.0
2018-Jun-08 22:58N 34°38' E 135°25'0 0.0
2018-Jun-08 22:31N 34°38' E 135°25'4 8.1
2018-Jun-08 22:01N 34°36' E 135°20'815.8
2018-Jun-08 21:31N 34°35' E 135°11'917.3
2018-Jun-08 21:00N 34°37' E 135°00'1019.7
2018-Jun-08 20:31N 34°34' E 134°49'1019.0
2018-Jun-08 20:00N 34°29' E 134°39'1119.8
2018-Jun-08 19:28N 34°26' E 134°27'920.3
2018-Jun-08 19:00N 34°24' E 134°16'  

Dump ship's entire track history